createdAt,value
2022-12-25T00:01:12.668Z,7.70
2022-12-25T00:04:16.008Z,7.70
2022-12-25T00:07:20.577Z,7.70
2022-12-25T00:10:23.985Z,7.70
2022-12-25T00:13:27.243Z,7.70
2022-12-25T00:16:30.456Z,7.70
2022-12-25T00:19:33.800Z,7.50
2022-12-25T00:22:38.351Z,7.40
2022-12-25T00:25:42.149Z,7.40
2022-12-25T00:28:45.347Z,7.40
2022-12-25T00:31:48.563Z,7.30
2022-12-25T00:34:51.782Z,7.30
2022-12-25T00:37:56.330Z,7.20
2022-12-25T00:40:59.440Z,7.20
2022-12-25T00:44:02.571Z,7.20
2022-12-25T00:47:06.028Z,7.20
2022-12-25T00:50:10.399Z,7.10
2022-12-25T00:53:14.926Z,7.10
2022-12-25T00:56:19.198Z,7.10
2022-12-25T00:59:22.363Z,7.10
2022-12-25T01:02:26.005Z,7.10
2022-12-25T01:05:29.359Z,7.10
2022-12-25T01:08:36.328Z,7.10
2022-12-25T01:11:38.675Z,7.10
2022-12-25T01:14:41.869Z,7.10
2022-12-25T01:17:45.217Z,7.20
2022-12-25T01:20:49.168Z,7.20
2022-12-25T01:23:55.052Z,7.20
2022-12-25T01:26:58.206Z,7.30
2022-12-25T01:30:01.392Z,7.20
2022-12-25T01:33:04.924Z,7.20
2022-12-25T01:36:16.069Z,7.20
2022-12-25T01:39:20.645Z,7.30
2022-12-25T01:42:24.818Z,7.40
2022-12-25T01:45:35.387Z,7.40
2022-12-25T01:48:40.442Z,7.40
2022-12-25T01:51:46.927Z,7.40
2022-12-25T01:54:55.355Z,7.50
2022-12-25T01:57:58.691Z,7.50
2022-12-25T02:01:02.035Z,7.50
2022-12-25T02:04:10.135Z,7.50
2022-12-25T02:07:17.116Z,7.50
2022-12-25T02:10:22.139Z,7.50
2022-12-25T02:13:25.312Z,7.50
2022-12-25T02:16:34.913Z,7.40
2022-12-25T02:20:33.591Z,7.40
2022-12-25T02:24:33.175Z,7.50
2022-12-25T02:28:03.973Z,7.50
2022-12-25T02:31:11.736Z,7.60
2022-12-25T02:34:20.166Z,7.60
2022-12-25T02:37:31.925Z,7.60
2022-12-25T02:40:40.409Z,7.50
2022-12-25T02:44:04.832Z,7.40
2022-12-25T02:47:27.061Z,7.40
2022-12-25T02:50:48.034Z,7.40
2022-12-25T02:54:12.517Z,7.30
2022-12-25T02:57:35.702Z,7.30
2022-12-25T03:01:01.996Z,7.30
2022-12-25T03:04:28.137Z,7.30
2022-12-25T03:07:32.066Z,7.30
2022-12-25T03:10:56.275Z,7.40
2022-12-25T03:14:16.703Z,7.30
2022-12-25T03:17:21.311Z,7.30
2022-12-25T03:20:42.861Z,7.30
2022-12-25T03:24:07.269Z,7.20
2022-12-25T03:27:10.418Z,7.20
2022-12-25T03:30:31.447Z,7.20
2022-12-25T03:34:10.122Z,7.10
2022-12-25T03:37:45.718Z,7.00
2022-12-25T03:41:16.975Z,7.00
2022-12-25T03:44:44.248Z,6.90
2022-12-25T03:48:09.641Z,6.80
2022-12-25T03:51:32.758Z,6.80
2022-12-25T03:54:57.149Z,6.80
2022-12-25T03:58:17.513Z,6.70
2022-12-25T04:01:38.002Z,6.60
2022-12-25T04:04:58.582Z,6.60
2022-12-25T04:08:20.414Z,6.50
2022-12-25T04:11:40.655Z,6.50
2022-12-25T04:15:01.109Z,6.50
2022-12-25T04:18:21.622Z,6.40
2022-12-25T04:21:42.433Z,6.50
2022-12-25T04:25:04.598Z,6.50
2022-12-25T04:28:25.003Z,6.50
2022-12-25T04:31:45.477Z,6.50
2022-12-25T04:35:06.244Z,6.60
2022-12-25T04:38:09.409Z,6.70
2022-12-25T04:41:15.240Z,6.70
2022-12-25T04:44:18.406Z,6.70
2022-12-25T04:47:21.569Z,6.70
2022-12-25T04:50:24.711Z,6.70
2022-12-25T04:53:27.879Z,6.60
2022-12-25T04:56:32.436Z,6.60
2022-12-25T04:59:35.677Z,6.60
2022-12-25T05:02:38.984Z,6.60
2022-12-25T05:05:42.285Z,6.70
2022-12-25T05:08:45.600Z,6.60
2022-12-25T05:11:50.128Z,6.60
2022-12-25T05:14:53.289Z,6.50
2022-12-25T05:17:56.436Z,6.40
2022-12-25T05:20:59.606Z,6.40
2022-12-25T05:24:02.923Z,6.30
2022-12-25T05:27:07.476Z,6.20
2022-12-25T05:30:11.287Z,6.20
2022-12-25T05:33:14.896Z,6.20
2022-12-25T05:36:18.149Z,6.20
2022-12-25T05:39:21.478Z,6.10
2022-12-25T05:42:26.004Z,6.10
2022-12-25T05:45:29.165Z,6.00
2022-12-25T05:48:32.391Z,6.00
2022-12-25T05:51:35.559Z,5.90
2022-12-25T05:54:38.744Z,5.90
2022-12-25T05:57:43.320Z,5.90
2022-12-25T06:00:46.462Z,5.80
2022-12-25T06:03:49.723Z,5.70
2022-12-25T06:06:52.934Z,5.70
2022-12-25T06:09:56.093Z,5.70
2022-12-25T06:13:00.886Z,5.70
2022-12-25T06:16:06.019Z,5.70
2022-12-25T06:19:09.235Z,5.80
2022-12-25T06:22:12.389Z,5.70
2022-12-25T06:25:15.657Z,5.70
2022-12-25T06:28:20.144Z,5.70
2022-12-25T06:31:24.889Z,5.60
2022-12-25T06:34:28.329Z,5.60
2022-12-25T06:37:32.223Z,5.60
2022-12-25T06:40:35.593Z,5.50
2022-12-25T06:43:40.460Z,5.50
2022-12-25T06:46:43.560Z,5.60
2022-12-25T06:49:46.763Z,5.50
2022-12-25T06:52:49.890Z,5.50
2022-12-25T06:55:53.056Z,5.60
2022-12-25T06:58:58.993Z,5.70
2022-12-25T07:02:02.964Z,5.70
2022-12-25T07:05:06.927Z,5.80
2022-12-25T07:08:10.057Z,5.80
2022-12-25T07:11:13.262Z,5.90
2022-12-25T07:14:24.121Z,5.90
2022-12-25T07:17:27.477Z,6.00
2022-12-25T07:20:30.937Z,6.00
2022-12-25T07:23:34.131Z,6.00
2022-12-25T07:26:37.318Z,6.10
2022-12-25T07:29:41.824Z,6.20
2022-12-25T07:32:49.978Z,6.20
2022-12-25T07:35:53.437Z,6.30
2022-12-25T07:38:56.597Z,6.50
2022-12-25T07:41:59.705Z,6.60
2022-12-25T07:45:06.942Z,6.60
2022-12-25T07:48:16.285Z,6.60
2022-12-25T07:51:19.886Z,6.60
2022-12-25T07:54:23.047Z,6.70
2022-12-25T07:57:26.200Z,6.70
2022-12-25T08:00:32.847Z,6.80
2022-12-25T08:03:36.728Z,6.90
2022-12-25T08:06:39.992Z,6.90
2022-12-25T08:09:43.145Z,6.90
2022-12-25T08:12:46.369Z,7.00
2022-12-25T08:15:51.128Z,7.00
2022-12-25T08:18:55.093Z,7.00
2022-12-25T08:21:58.329Z,7.10
2022-12-25T08:25:01.624Z,7.30
2022-12-25T08:28:04.964Z,7.40
2022-12-25T08:31:11.829Z,7.50
2022-12-25T08:34:15.286Z,7.70
2022-12-25T08:37:18.455Z,7.70
2022-12-25T08:40:21.687Z,7.90
2022-12-25T08:43:24.948Z,8.00
2022-12-25T08:46:29.712Z,8.20
2022-12-25T08:49:32.889Z,8.20
2022-12-25T08:52:36.758Z,8.30
2022-12-25T08:55:40.055Z,8.40
2022-12-25T08:58:43.748Z,8.50
2022-12-25T09:01:48.367Z,8.60
2022-12-25T09:04:51.659Z,8.60
2022-12-25T09:07:54.863Z,8.70
2022-12-25T09:10:58.170Z,8.80
2022-12-25T09:14:01.917Z,9.10
2022-12-25T09:17:06.530Z,9.30
2022-12-25T09:20:10.004Z,9.50
2022-12-25T09:23:14.279Z,9.70
2022-12-25T09:26:19.685Z,10.00
2022-12-25T09:29:22.882Z,10.20
2022-12-25T09:32:27.403Z,10.40
2022-12-25T09:35:30.640Z,10.70
2022-12-25T09:38:34.595Z,10.80
2022-12-25T09:41:41.750Z,10.90
2022-12-25T09:44:48.201Z,11.10
2022-12-25T09:47:56.381Z,11.30
2022-12-25T09:51:03.826Z,11.40
2022-12-25T09:54:13.975Z,11.40
2022-12-25T09:57:17.187Z,11.60
2022-12-25T10:00:23.060Z,11.80
2022-12-25T10:03:43.234Z,11.80
2022-12-25T10:06:59.684Z,11.60
2022-12-25T10:10:17.704Z,11.40
2022-12-25T10:13:40.451Z,11.10
2022-12-25T10:16:53.069Z,11.00
2022-12-25T10:20:08.307Z,10.80
2022-12-25T10:23:16.771Z,10.60
2022-12-25T10:26:21.849Z,10.50
2022-12-25T10:29:25.042Z,10.50
2022-12-25T10:32:28.218Z,10.50
2022-12-25T10:35:32.954Z,10.60
2022-12-25T10:38:36.649Z,10.60
2022-12-25T10:41:58.015Z,10.70
2022-12-25T10:45:02.484Z,10.80
2022-12-25T10:48:07.750Z,10.80
2022-12-25T10:51:12.678Z,10.90
2022-12-25T10:54:24.938Z,10.90
2022-12-25T10:57:29.811Z,11.00
2022-12-25T11:00:34.100Z,11.20
2022-12-25T11:03:39.896Z,11.20
2022-12-25T11:06:44.599Z,11.40
2022-12-25T11:09:51.711Z,11.60
2022-12-25T11:12:55.463Z,11.80
2022-12-25T11:16:09.537Z,12.10
2022-12-25T11:19:27.887Z,12.80
2022-12-25T11:22:32.458Z,14.80
2022-12-25T11:25:35.771Z,16.40
2022-12-25T11:28:41.551Z,16.40
2022-12-25T11:31:44.955Z,16.00
2022-12-25T11:34:49.647Z,15.90
2022-12-25T11:37:54.914Z,19.10
2022-12-25T11:41:01.421Z,23.20
2022-12-25T11:44:08.406Z,26.00
2022-12-25T11:47:21.284Z,28.60
2022-12-25T11:50:29.661Z,31.00
2022-12-25T11:53:39.980Z,32.70
2022-12-25T11:56:44.038Z,33.50
2022-12-25T11:59:53.409Z,34.20
2022-12-25T12:03:03.039Z,33.50
2022-12-25T12:06:09.662Z,30.90
2022-12-25T12:09:25.895Z,28.80
2022-12-25T12:12:36.913Z,28.90
2022-12-25T12:15:45.064Z,30.20
2022-12-25T12:18:50.794Z,31.00
2022-12-25T12:21:56.638Z,31.10
2022-12-25T12:25:06.188Z,29.20
2022-12-25T12:28:21.576Z,26.60
2022-12-25T12:31:26.275Z,26.30
2022-12-25T12:34:33.416Z,27.10
2022-12-25T12:37:38.951Z,28.80
2022-12-25T12:40:46.226Z,30.90
2022-12-25T12:43:55.727Z,32.30
2022-12-25T12:46:59.077Z,32.90
2022-12-25T12:50:03.259Z,32.80
2022-12-25T12:53:30.143Z,32.90
2022-12-25T12:56:34.780Z,32.10
2022-12-25T12:59:43.538Z,31.30
2022-12-25T13:03:17.711Z,31.10
2022-12-25T13:06:28.474Z,30.60
2022-12-25T13:09:42.054Z,28.50
2022-12-25T13:12:47.129Z,26.40
2022-12-25T13:15:51.881Z,23.90
2022-12-25T13:18:57.449Z,22.60
2022-12-25T13:22:03.321Z,22.50
2022-12-25T13:25:16.126Z,22.20
2022-12-25T13:28:26.069Z,21.50
2022-12-25T13:31:30.707Z,21.00
2022-12-25T13:34:37.372Z,20.30
2022-12-25T13:37:40.617Z,20.10
2022-12-25T13:41:12.262Z,20.00
2022-12-25T13:44:20.637Z,20.50
2022-12-25T13:47:26.481Z,20.70
2022-12-25T13:50:31.891Z,21.00
2022-12-25T13:53:36.528Z,21.30
2022-12-25T13:56:46.246Z,21.00
2022-12-25T13:59:51.211Z,20.50
2022-12-25T14:02:55.305Z,19.80
2022-12-25T14:06:00.022Z,19.30
2022-12-25T14:09:03.309Z,18.70
2022-12-25T14:12:07.317Z,17.90
2022-12-25T14:15:18.059Z,17.10
2022-12-25T14:18:23.711Z,16.60
2022-12-25T14:21:32.565Z,16.20
2022-12-25T14:24:36.079Z,15.80
2022-12-25T14:27:39.728Z,15.20
2022-12-25T14:30:44.589Z,15.00
2022-12-25T14:33:48.292Z,14.70
2022-12-25T14:36:53.266Z,14.50
2022-12-25T14:39:58.408Z,14.30
2022-12-25T14:43:03.254Z,14.00
2022-12-25T14:46:07.855Z,13.70
2022-12-25T14:49:25.151Z,13.60
2022-12-25T14:52:31.278Z,13.40
2022-12-25T14:55:34.580Z,13.30
2022-12-25T14:58:43.253Z,13.10
2022-12-25T15:01:52.977Z,13.00
2022-12-25T15:04:56.289Z,12.80
2022-12-25T15:08:04.877Z,12.70
2022-12-25T15:11:08.195Z,12.50
2022-12-25T15:14:11.352Z,12.40
2022-12-25T15:17:26.459Z,12.30
2022-12-25T15:20:32.232Z,12.20
2022-12-25T15:23:35.844Z,12.00
2022-12-25T15:26:39.025Z,11.90
2022-12-25T15:30:09.323Z,11.70
2022-12-25T15:33:07.329Z,11.60
2022-12-25T15:36:11.176Z,11.50
2022-12-25T15:39:14.407Z,11.40
2022-12-25T15:42:20.003Z,11.30
2022-12-25T15:45:25.396Z,11.20
2022-12-25T15:48:30.561Z,11.00
2022-12-25T15:51:33.922Z,10.90
2022-12-25T15:54:37.084Z,10.80
2022-12-25T15:57:42.554Z,10.70
2022-12-25T16:00:45.724Z,10.50
2022-12-25T16:03:50.296Z,10.50
2022-12-25T16:06:54.229Z,10.40
2022-12-25T16:09:57.438Z,10.30
2022-12-25T16:13:00.658Z,10.20
2022-12-25T16:16:05.158Z,10.20
2022-12-25T16:19:09.908Z,10.10
2022-12-25T16:22:14.184Z,10.00
2022-12-25T16:25:19.936Z,9.90
2022-12-25T16:28:23.128Z,9.90
2022-12-25T16:31:26.513Z,9.80
2022-12-25T16:34:31.176Z,9.70
2022-12-25T16:37:35.618Z,9.60
2022-12-25T16:40:38.795Z,9.60
2022-12-25T16:43:42.341Z,9.50
2022-12-25T16:46:45.678Z,9.40
2022-12-25T16:49:50.265Z,9.30
2022-12-25T16:52:53.447Z,9.20
2022-12-25T16:56:06.622Z,9.10
2022-12-25T16:59:10.365Z,9.00
2022-12-25T17:02:17.199Z,9.00
2022-12-25T17:05:21.917Z,8.90
2022-12-25T17:08:25.059Z,8.90
2022-12-25T17:11:30.202Z,8.80
2022-12-25T17:14:33.937Z,8.80
2022-12-25T17:17:37.143Z,8.70
2022-12-25T17:20:49.887Z,8.70
2022-12-25T17:23:58.062Z,8.60
2022-12-25T17:27:08.561Z,8.50
2022-12-25T17:30:12.549Z,8.50
2022-12-25T17:33:15.755Z,8.40
2022-12-25T17:36:22.012Z,8.30
2022-12-25T17:39:25.194Z,8.30
2022-12-25T17:42:28.366Z,8.20
2022-12-25T17:45:31.630Z,8.20
2022-12-25T17:48:36.523Z,8.10
2022-12-25T17:51:41.288Z,8.10
2022-12-25T17:54:44.549Z,8.10
2022-12-25T17:57:47.787Z,8.00
2022-12-25T18:00:51.024Z,7.90
2022-12-25T18:03:54.928Z,7.90
2022-12-25T18:06:59.546Z,7.90
2022-12-25T18:10:02.800Z,7.80
2022-12-25T18:13:06.215Z,7.80
2022-12-25T18:16:09.739Z,7.80
2022-12-25T18:19:15.069Z,7.70
2022-12-25T18:22:19.615Z,7.60
2022-12-25T18:25:22.833Z,7.60
2022-12-25T18:28:25.991Z,7.60
2022-12-25T18:31:31.295Z,7.60
2022-12-25T18:34:34.558Z,7.50
2022-12-25T18:37:40.232Z,7.40
2022-12-25T18:40:44.856Z,7.30
2022-12-25T18:43:53.960Z,7.30
2022-12-25T18:46:58.685Z,7.20
2022-12-25T18:50:02.004Z,7.20
2022-12-25T18:53:09.070Z,7.20
2022-12-25T18:56:15.242Z,7.10
2022-12-25T18:59:18.443Z,7.10
2022-12-25T19:02:21.741Z,7.10
2022-12-25T19:05:25.229Z,7.00
2022-12-25T19:08:29.753Z,7.00
2022-12-25T19:11:32.882Z,7.00
2022-12-25T19:14:47.247Z,6.90
2022-12-25T19:17:51.686Z,6.80
2022-12-25T19:20:55.184Z,6.80
2022-12-25T19:23:59.729Z,6.80
2022-12-25T19:27:03.219Z,6.70
2022-12-25T19:30:08.468Z,6.70
2022-12-25T19:33:17.462Z,6.80
2022-12-25T19:36:21.283Z,6.70
2022-12-25T19:39:26.038Z,6.70
2022-12-25T19:42:29.517Z,6.70
2022-12-25T19:45:33.045Z,6.60
2022-12-25T19:48:37.043Z,6.60
2022-12-25T19:51:42.571Z,6.50
2022-12-25T19:54:47.645Z,6.50
2022-12-25T19:57:51.000Z,6.50
2022-12-25T20:01:01.608Z,6.50
2022-12-25T20:04:05.643Z,6.50
2022-12-25T20:07:09.571Z,6.50
2022-12-25T20:10:14.412Z,6.50
2022-12-25T20:13:18.574Z,6.50
2022-12-25T20:16:22.385Z,6.40
2022-12-25T20:19:25.850Z,6.40
2022-12-25T20:22:29.106Z,6.30
2022-12-25T20:25:33.739Z,6.30
2022-12-25T20:28:38.332Z,6.30
2022-12-25T20:31:41.715Z,6.30
2022-12-25T20:34:44.919Z,6.30
2022-12-25T20:37:48.526Z,6.20
2022-12-25T20:41:26.241Z,6.20
2022-12-25T20:44:24.284Z,6.20
2022-12-25T20:47:27.628Z,6.20
2022-12-25T20:50:31.206Z,6.20
2022-12-25T20:53:34.827Z,6.10
2022-12-25T20:56:40.364Z,6.10
2022-12-25T20:59:44.011Z,6.00
2022-12-25T21:02:47.323Z,6.00
2022-12-25T21:05:52.986Z,5.90
2022-12-25T21:08:56.220Z,5.90
2022-12-25T21:12:00.824Z,5.90
2022-12-25T21:15:11.676Z,6.00
2022-12-25T21:18:21.031Z,6.00
2022-12-25T21:21:24.324Z,6.00
2022-12-25T21:24:27.533Z,5.90
2022-12-25T21:27:32.093Z,5.90
2022-12-25T21:30:35.414Z,5.90
2022-12-25T21:33:52.937Z,5.90
2022-12-25T21:36:56.309Z,5.90
2022-12-25T21:39:59.621Z,5.80
2022-12-25T21:43:04.395Z,5.80
2022-12-25T21:46:09.098Z,5.80
2022-12-25T21:49:12.253Z,5.70
2022-12-25T21:52:14.399Z,5.70
2022-12-25T21:55:17.713Z,5.60
2022-12-25T21:58:22.240Z,5.60
2022-12-25T22:01:25.620Z,5.60
2022-12-25T22:04:28.812Z,5.50
2022-12-25T22:07:32.620Z,5.50
2022-12-25T22:10:37.894Z,5.50
2022-12-25T22:13:59.601Z,5.50
2022-12-25T22:17:20.443Z,5.50
2022-12-25T22:20:25.562Z,5.50
2022-12-25T22:23:28.737Z,5.30
2022-12-25T22:26:31.909Z,5.30
2022-12-25T22:29:37.385Z,5.30
2022-12-25T22:32:40.954Z,5.30
2022-12-25T22:35:44.094Z,5.20
2022-12-25T22:38:47.199Z,5.20
2022-12-25T22:41:50.657Z,5.30
2022-12-25T22:44:55.214Z,5.20
2022-12-25T22:47:58.462Z,5.20
2022-12-25T22:51:03.771Z,5.20
2022-12-25T22:54:06.932Z,5.20
2022-12-25T22:57:10.098Z,5.20
2022-12-25T23:00:15.333Z,5.10
2022-12-25T23:03:18.578Z,5.20
2022-12-25T23:06:21.942Z,5.20
2022-12-25T23:09:28.004Z,5.20
2022-12-25T23:12:48.785Z,5.20
2022-12-25T23:15:53.399Z,5.10
2022-12-25T23:19:13.916Z,5.10
2022-12-25T23:22:34.591Z,5.10
2022-12-25T23:25:57.406Z,5.10
2022-12-25T23:29:18.097Z,4.90
2022-12-25T23:32:25.278Z,4.90
2022-12-25T23:35:28.586Z,4.90
2022-12-25T23:38:31.802Z,4.90
2022-12-25T23:41:35.032Z,4.90
2022-12-25T23:44:38.184Z,4.90
2022-12-25T23:47:42.818Z,4.90
2022-12-25T23:50:45.987Z,4.90
2022-12-25T23:53:49.235Z,4.90
2022-12-25T23:56:53.132Z,4.80
2022-12-25T23:59:56.381Z,4.80
